Time;durP1;ratioP1;P1;durP2;ratioP2;P2;SDS_P1;SDS_P2;PMS_P1;PMS_P2;Temp;Humidity;BMP_temperature;BMP_pressure;BME280_temperature;BME280_humidity;BME280_pressure;Samples;Min_cycle;Max_cycle;Signal;HPM_P1;HPM_P2
2022/02/22 00:00:01;;;;;;;51.50;10.82;;;8.30;99.90;;;8.52;84.54;101683.56;5112049;28;20070;-60
2022/02/22 00:02:41;;;;;;;56.70;11.18;;;8.30;99.90;;;8.54;83.99;101686.22;5111843;28;20577;-59
2022/02/22 00:05:10;;;;;;;58.53;11.18;;;8.40;99.90;;;8.41;84.05;101679.88;5111833;28;20047;-59
2022/02/22 00:07:39;;;;;;;56.25;11.57;;;8.40;99.90;;;8.42;84.58;101684.25;5112148;28;20067;-59
2022/02/22 00:10:11;;;;;;;57.92;11.10;;;8.30;99.90;;;8.44;84.62;101694.88;5093749;28;20126;-59
2022/02/22 00:12:39;;;;;;;55.90;10.25;;;8.30;99.90;;;8.37;85.09;101692.97;5112100;28;20055;-59
2022/02/22 00:15:09;;;;;;;56.40;11.90;;;8.20;99.90;;;8.31;85.09;101706.03;5111845;28;20067;-59
2022/02/22 00:17:39;;;;;;;55.20;11.27;;;8.20;99.90;;;8.29;85.66;101697.19;5111664;28;20048;-59
2022/02/22 00:20:12;;;;;;;56.78;10.70;;;8.10;99.90;;;8.29;85.79;101694.56;5112227;28;20055;-60
2022/02/22 00:22:41;;;;;;;50.85;9.77;;;8.10;99.90;;;8.30;85.24;101697.25;5112195;28;20048;-59
2022/02/22 00:25:12;;;;;;;55.15;11.40;;;8.10;99.90;;;8.17;85.77;101682.91;5093325;28;20077;-59
2022/02/22 00:27:42;;;;;;;58.35;11.27;;;8.10;99.90;;;8.24;85.67;101710.28;5111605;28;20222;-59
2022/02/22 00:30:14;;;;;;;63.15;11.60;;;8.10;99.90;;;8.29;85.71;101713.00;5111621;28;20044;-60
2022/02/22 00:32:43;;;;;;;64.82;11.30;;;8.10;99.90;;;8.25;85.20;101714.72;5111871;28;20490;-60
2022/02/22 00:35:13;;;;;;;59.38;11.25;;;8.10;99.90;;;8.21;86.04;101721.66;5111532;28;20481;-59
2022/02/22 00:37:42;;;;;;;57.20;9.85;;;8.10;99.90;;;8.18;85.60;101723.34;5111573;28;20493;-60
2022/02/22 00:40:13;;;;;;;49.88;9.93;;;8.00;99.90;;;8.19;85.61;101727.72;5111589;28;20070;-60
2022/02/22 00:42:42;;;;;;;59.35;11.80;;;8.00;99.90;;;8.10;86.10;101720.56;5111435;28;20462;-60
2022/02/22 00:45:12;;;;;;;51.58;9.50;;;8.00;99.90;;;8.06;85.85;101708.19;5111695;28;20124;-60
2022/02/22 00:47:40;;;;;;;58.08;10.75;;;8.00;99.90;;;8.12;85.12;101718.84;5113920;28;20043;-59
2022/02/22 00:50:10;;;;;;;47.67;9.32;;;8.00;99.90;;;8.21;85.21;101732.19;5115578;28;20048;-60
2022/02/22 00:52:39;;;;;;;51.47;9.70;;;8.00;99.90;;;8.33;84.79;101735.94;5115358;28;20520;-59
2022/02/22 00:55:09;;;;;;;49.70;11.32;;;8.10;99.90;;;8.28;84.29;101733.22;5115284;28;20172;-60
2022/02/22 00:57:41;;;;;;;52.00;11.93;;;8.10;99.90;;;7.66;84.02;101637.19;5115626;28;20051;-60
2022/02/22 01:00:11;;;;;;;50.83;10.57;;;8.10;99.90;;;8.32;84.25;101734.16;5115526;28;20043;-60
2022/02/22 01:02:40;;;;;;;46.60;10.88;;;8.10;99.90;;;8.17;84.57;101732.97;5115298;28;20039;-59
2022/02/22 01:05:09;;;;;;;46.35;11.43;;;8.00;99.90;;;8.14;84.89;101732.03;5115253;28;20118;-59
2022/02/22 01:07:39;;;;;;;62.25;10.40;;;8.00;99.90;;;8.20;84.85;101726.91;5114915;28;20075;-60
2022/02/22 01:10:09;;;;;;;50.17;10.52;;;8.00;99.90;;;7.52;85.11;101622.84;5115213;28;20112;-61
2022/02/22 01:12:37;;;;;;;52.20;11.88;;;8.00;99.90;;;8.11;85.54;101726.69;5115618;28;20043;-61
2022/02/22 01:15:07;;;;;;;55.58;10.98;;;8.00;99.90;;;8.25;85.42;101734.91;5115188;28;20070;-59
2022/02/22 01:17:36;;;;;;;62.88;11.35;;;8.00;99.90;;;8.16;85.11;101744.41;5114998;28;20147;-60
2022/02/22 01:20:08;;;;;;;65.55;11.50;;;8.00;99.90;;;8.11;85.56;101740.75;5115165;28;20086;-59
2022/02/22 01:22:38;;;;;;;47.22;11.27;;;8.00;99.90;;;8.01;85.75;101730.91;5114939;28;20043;-60
2022/02/22 01:25:08;;;;;;;48.65;11.40;;;7.90;99.90;;;7.97;86.01;101715.91;5114932;28;20142;-59
2022/02/22 01:27:38;;;;;;;67.97;11.65;;;7.90;99.90;;;8.06;85.77;101733.63;5114722;28;20504;-59
2022/02/22 01:30:08;;;;;;;56.33;10.35;;;7.90;99.90;;;8.04;85.95;101711.63;5114685;28;20096;-60
2022/02/22 01:32:37;;;;;;;59.60;11.30;;;8.00;99.90;;;8.10;86.02;101739.00;5096230;28;20058;-59
2022/02/22 01:35:07;;;;;;;56.10;10.90;;;7.90;99.90;;;8.15;86.02;101737.34;5114664;28;20082;-60
2022/02/22 01:37:37;;;;;;;52.20;9.85;;;8.00;99.90;;;8.19;85.68;101746.19;5114641;28;20052;-60
2022/02/22 01:40:10;;;;;;;49.42;11.32;;;8.00;99.90;;;8.14;85.64;101742.59;5114776;28;20044;-60
2022/02/22 01:42:38;;;;;;;51.30;9.18;;;8.00;99.90;;;8.05;85.49;101743.28;5114623;28;20047;-59
2022/02/22 01:45:09;;;;;;;48.20;9.32;;;7.90;99.90;;;8.08;84.81;101743.34;5114339;28;20040;-59
2022/02/22 01:47:38;;;;;;;56.08;10.27;;;7.90;99.90;;;7.83;85.14;101712.13;5114686;28;20039;-59
2022/02/22 01:50:10;;;;;;;44.05;8.90;;;7.90;99.90;;;8.04;85.05;101752.06;5114764;28;20065;-59
2022/02/22 01:52:38;;;;;;;54.50;9.57;;;7.90;99.90;;;8.14;84.93;101751.38;5114574;28;20052;-59
2022/02/22 01:55:10;;;;;;;43.15;9.43;;;8.00;99.90;;;8.21;84.48;101762.91;5114349;28;20511;-59
2022/02/22 01:57:40;;;;;;;48.65;9.95;;;8.00;99.90;;;8.26;84.64;101763.94;5113667;28;20497;-60
2022/02/22 02:00:11;;;;;;;50.08;9.50;;;8.10;99.90;;;8.29;84.76;101761.34;5114266;28;20048;-59
2022/02/22 02:02:40;;;;;;;47.90;10.73;;;8.20;99.90;;;8.22;84.44;101756.81;5114361;28;20058;-59
2022/02/22 02:05:10;;;;;;;50.40;10.32;;;8.10;99.90;;;8.28;84.79;101762.22;5114512;28;20118;-60
2022/02/22 02:07:38;;;;;;;57.70;11.17;;;8.10;99.90;;;8.23;85.37;101761.19;5114055;28;20079;-60
2022/02/22 02:10:09;;;;;;;54.15;10.20;;;8.10;99.90;;;8.28;84.92;101762.22;5113980;28;20289;-62
2022/02/22 02:12:40;;;;;;;57.33;10.10;;;8.10;99.90;;;8.20;84.99;101762.03;5114063;28;20074;-60
2022/02/22 02:15:10;;;;;;;58.22;10.45;;;8.00;99.90;;;8.27;85.35;101756.91;5114079;28;20052;-60
2022/02/22 02:17:39;;;;;;;61.35;9.95;;;8.10;99.90;;;8.20;84.67;101754.13;5113870;28;20070;-60
2022/02/22 02:20:11;;;;;;;45.42;8.73;;;8.10;99.90;;;7.58;84.93;101646.66;5113671;28;20118;-60
2022/02/22 02:22:43;;;;;;;48.08;9.10;;;8.10;99.90;;;7.99;85.04;101729.97;5113607;28;20058;-60
2022/02/22 02:25:13;;;;;;;45.15;9.98;;;8.00;99.90;;;8.17;84.72;101753.16;5113610;28;20396;-60
2022/02/22 02:27:43;;;;;;;56.60;11.82;;;8.00;99.90;;;8.19;84.49;101752.34;5113427;28;20107;-59
2022/02/22 02:30:12;;;;;;;48.30;10.20;;;8.10;99.90;;;8.10;84.47;101746.91;5113495;28;20047;-60
2022/02/22 02:32:41;;;;;;;45.15;9.05;;;8.00;99.90;;;8.12;84.54;101752.19;5113534;28;20340;-59
2022/02/22 02:35:11;;;;;;;51.33;10.25;;;8.00;99.90;;;8.12;84.77;101750.47;5113264;28;20144;-60
2022/02/22 02:37:42;;;;;;;56.47;10.75;;;8.00;99.90;;;8.17;84.61;101743.53;5113369;28;20082;-59
2022/02/22 02:40:31;;;;;;;41.10;9.88;;;8.00;99.90;;;8.10;84.79;101746.91;5113423;28;20117;-59
2022/02/22 02:42:59;;;;;;;42.67;9.32;;;8.00;99.90;;;8.18;84.74;101747.94;5113115;28;20094;-59
2022/02/22 02:45:27;;;;;;;50.55;9.93;;;8.00;99.90;;;8.24;84.58;101747.19;5113136;28;20122;-59
2022/02/22 02:47:56;;;;;;;48.97;9.85;;;8.00;99.90;;;8.10;84.64;101738.09;5113090;28;20068;-61
2022/02/22 02:50:25;;;;;;;53.50;9.95;;;8.00;99.90;;;8.08;84.95;101737.19;5112960;28;20052;-59
2022/02/22 02:52:55;;;;;;;38.20;9.95;;;7.90;99.90;;;8.11;84.92;101747.78;5113097;28;20093;-59
2022/02/22 02:55:24;;;;;;;40.00;9.50;;;7.90;99.90;;;8.19;84.60;101746.19;5112887;28;20386;-60
2022/02/22 02:57:52;;;;;;;45.63;9.93;;;8.00;99.90;;;8.09;84.80;101737.22;5112937;28;20324;-60
2022/02/22 03:00:20;;;;;;;48.88;9.18;;;7.90;99.90;;;8.14;85.04;101743.47;5112876;28;20071;-59
2022/02/22 03:02:49;;;;;;;39.45;8.68;;;8.00;99.90;;;8.17;85.07;101751.44;5112956;28;20039;-59
2022/02/22 03:05:18;;;;;;;52.38;10.38;;;8.00;99.90;;;8.28;84.65;101753.41;5112696;28;20067;-59
2022/02/22 03:07:46;;;;;;;41.60;8.65;;;8.00;99.90;;;8.35;84.50;101756.19;5112527;28;20048;-59
2022/02/22 03:10:16;;;;;;;42.03;8.25;;;8.10;99.90;;;8.47;83.82;101755.53;5111905;28;20428;-59
2022/02/22 03:12:44;;;;;;;44.07;8.27;;;8.20;99.90;;;8.57;83.35;101765.41;5112525;28;20048;-59
2022/02/22 03:15:13;;;;;;;39.63;9.55;;;8.30;99.90;;;8.57;83.28;101762.75;5112448;28;20788;-59
2022/02/22 03:17:41;;;;;;;35.58;9.00;;;8.40;99.90;;;8.59;82.77;101753.13;5112412;28;20048;-59
2022/02/22 03:20:11;;;;;;;34.10;7.85;;;8.40;99.90;;;8.51;83.14;101738.91;5112432;28;20044;-59
2022/02/22 03:22:45;;;;;;;42.03;8.20;;;8.40;99.90;;;8.54;83.21;101739.84;5112504;28;20532;-59
2022/02/22 03:25:15;;;;;;;39.40;8.13;;;8.30;99.90;;;8.65;83.23;101753.25;5112347;28;20043;-59
2022/02/22 03:27:43;;;;;;;32.78;8.38;;;8.40;99.90;;;8.66;83.07;101741.81;5112576;28;20180;-59
2022/02/22 03:30:13;;;;;;;35.63;9.25;;;8.40;99.90;;;8.71;82.81;101745.44;5094062;28;20147;-61
2022/02/22 03:32:41;;;;;;;33.28;7.93;;;8.50;99.90;;;8.25;82.58;101659.38;5112241;28;20116;-59
2022/02/22 03:35:10;;;;;;;44.20;9.05;;;8.60;99.90;;;8.88;81.68;101751.88;5112506;28;20519;-59
2022/02/22 03:37:38;;;;;;;44.85;9.63;;;8.60;99.90;;;8.90;81.38;101744.88;5112324;28;20515;-59
2022/02/22 03:40:08;;;;;;;37.05;9.32;;;8.70;99.90;;;8.93;81.25;101743.16;5112111;28;20045;-59
2022/02/22 03:42:43;;;;;;;44.83;9.23;;;8.80;99.90;;;9.03;81.49;101744.19;5112205;28;20480;-59
2022/02/22 03:45:12;;;;;;;33.13;7.88;;;8.90;99.90;;;9.06;81.00;101752.16;5112324;28;20449;-59
2022/02/22 03:47:42;;;;;;;37.17;8.02;;;8.90;99.90;;;9.03;80.48;101747.75;5112066;28;20113;-59
2022/02/22 03:50:13;;;;;;;32.28;8.30;;;8.90;99.90;;;9.02;79.94;101751.22;5111844;28;20077;-60
2022/02/22 03:52:42;;;;;;;40.38;8.38;;;8.90;99.90;;;8.98;80.87;101745.91;5112635;28;20039;-59
2022/02/22 03:55:12;;;;;;;32.13;8.13;;;8.70;99.90;;;9.03;80.58;101752.13;5112073;28;20338;-59
2022/02/22 03:57:45;;;;;;;36.47;8.02;;;8.80;99.90;;;9.10;80.39;101749.59;5112104;28;20040;-60
2022/02/22 04:00:17;;;;;;;35.05;7.32;;;8.90;99.90;;;8.87;80.24;101723.69;5093936;28;20048;-59
2022/02/22 04:02:46;;;;;;;32.35;7.40;;;8.80;99.90;;;8.94;79.71;101750.22;5112322;28;20431;-59
2022/02/22 04:05:15;;;;;;;34.13;7.70;;;8.80;99.90;;;8.93;80.17;101751.09;5112602;28;20043;-59
2022/02/22 04:07:46;;;;;;;29.35;8.10;;;8.70;99.90;;;8.91;80.47;101749.28;5112376;28;20055;-60
2022/02/22 04:10:14;;;;;;;28.55;8.18;;;8.70;99.90;;;8.87;80.39;101750.09;5112026;28;20526;-59
2022/02/22 04:12:45;;;;;;;30.80;7.35;;;8.60;99.90;;;8.85;80.71;101746.53;5112008;28;20067;-59
2022/02/22 04:15:14;;;;;;;25.83;7.60;;;8.60;99.90;;;8.85;80.40;101744.78;5111910;28;20047;-59
2022/02/22 04:17:43;;;;;;;30.90;7.97;;;8.60;99.90;;;8.75;80.67;101731.44;5111809;28;20054;-59
2022/02/22 04:20:12;;;;;;;24.27;6.75;;;8.60;99.90;;;8.96;80.56;101763.44;5111806;28;20051;-60
2022/02/22 04:22:41;;;;;;;27.60;7.97;;;8.70;99.90;;;8.86;80.82;101758.88;5097850;28;20052;-59
2022/02/22 04:25:10;;;;;;;31.17;7.32;;;8.70;99.90;;;8.90;80.63;101752.78;5115948;28;20074;-59
2022/02/22 04:27:39;;;;;;;26.45;7.15;;;8.70;99.90;;;8.95;81.17;101759.03;5115873;28;20493;-59
2022/02/22 04:30:11;;;;;;;26.02;7.25;;;8.70;99.90;;;9.01;81.22;101751.22;5115899;28;20097;-59
2022/02/22 04:32:39;;;;;;;27.60;7.28;;;8.80;99.90;;;9.07;80.88;101743.38;5116110;28;20472;-59
2022/02/22 04:35:09;;;;;;;26.13;7.20;;;8.90;99.90;;;8.95;81.55;101711.53;5115786;28;20054;-59
2022/02/22 04:37:38;;;;;;;28.23;7.15;;;8.90;99.90;;;9.17;80.83;101741.78;5116047;28;20572;-59
2022/02/22 04:40:08;;;;;;;30.13;6.95;;;9.00;99.90;;;9.04;81.67;101767.06;5116266;28;20123;-59
2022/02/22 04:42:37;;;;;;;;;;;8.90;99.90;;;9.19;81.80;101743.59;5097943;28;20082;-59
2022/02/22 04:45:07;;;;;;;16.00;6.55;;;9.00;99.90;;;9.29;81.45;101745.47;5115997;28;19919;-59
2022/02/22 04:47:38;;;;;;;;;;;9.00;99.90;;;9.21;81.08;101746.25;5098192;28;20146;-59
2022/02/22 04:50:07;;;;;;;24.75;7.10;;;9.00;99.90;;;9.00;80.57;101723.06;5115351;28;19920;-59
2022/02/22 04:52:36;;;;;;;33.80;7.78;;;9.00;99.90;;;9.20;79.91;101755.00;5115581;28;20043;-59
2022/02/22 04:55:06;;;;;;;28.70;7.63;;;8.90;99.90;;;9.22;80.09;101764.72;5115290;28;20458;-60
2022/02/22 04:57:36;;;;;;;28.17;7.05;;;9.00;99.90;;;9.24;80.25;101773.56;5115659;28;20051;-60
2022/02/22 05:00:07;;;;;;;25.98;7.53;;;9.00;99.90;;;9.14;80.65;101776.06;5097007;28;20081;-60
2022/02/22 05:02:37;;;;;;;24.27;7.53;;;9.00;99.90;;;9.21;82.03;101751.53;5115285;28;20047;-59
2022/02/22 05:05:07;;;;;;;22.10;7.37;;;8.90;99.90;;;9.28;82.54;101748.09;5115355;28;20047;-58
2022/02/22 05:07:35;;;;;;;23.05;7.25;;;9.00;99.90;;;9.27;83.07;101733.13;5115219;28;20048;-59
2022/02/22 05:10:05;;;;;;;32.15;8.88;;;9.00;99.90;;;9.25;83.84;101733.13;5096700;28;20050;-58
2022/02/22 05:12:34;;;;;;;33.75;8.18;;;9.00;99.90;;;9.21;84.63;101715.47;5097008;28;20074;-60
2022/02/22 05:15:04;;;;;;;37.03;8.75;;;9.00;99.90;;;9.30;84.70;101731.44;5114950;28;20063;-59
2022/02/22 05:17:33;;;;;;;34.50;9.45;;;9.00;99.90;;;9.28;85.15;101732.25;5114823;28;20459;-60
2022/02/22 05:20:08;;;;;;;34.35;8.80;;;9.00;99.90;;;9.26;86.06;101728.72;5096400;28;20059;-59
2022/02/22 05:22:41;;;;;;;31.80;8.88;;;9.00;99.90;;;9.26;85.83;101733.97;5114770;28;20412;-59
2022/02/22 05:25:11;;;;;;;39.03;8.52;;;9.00;99.90;;;9.17;85.76;101734.75;5114912;28;20050;-59
2022/02/22 05:27:40;;;;;;;31.23;8.80;;;8.90;99.90;;;8.96;86.43;101693.06;5114551;28;20441;-59
2022/02/22 05:30:10;;;;;;;34.55;8.77;;;8.90;99.90;;;9.14;86.31;101716.22;5114476;28;20460;-59
2022/02/22 05:32:39;;;;;;;;;;;8.80;99.90;;;8.99;86.05;101697.53;5114047;28;20444;-59
2022/02/22 05:35:12;;;;;;;35.13;9.05;;;8.90;99.90;;;9.23;85.90;101712.84;5114484;28;19923;-59
2022/02/22 05:37:41;;;;;;;37.55;9.50;;;8.90;99.90;;;9.22;85.89;101721.59;5114598;28;20097;-59
2022/02/22 05:40:12;;;;;;;34.47;8.82;;;8.90;99.90;;;9.15;85.90;101711.84;5114625;28;20055;-59
2022/02/22 05:42:41;;;;;;;40.47;9.77;;;8.80;99.90;;;9.14;85.59;101712.72;5114732;28;20043;-59
2022/02/22 05:45:12;;;;;;;33.65;9.00;;;8.90;99.90;;;8.42;85.46;101612.22;5114486;28;20088;-59
2022/02/22 05:47:40;;;;;;;46.08;10.20;;;8.80;99.90;;;8.98;85.93;101722.16;5114768;28;20039;-59
2022/02/22 05:50:11;;;;;;;45.15;10.15;;;8.70;99.90;;;8.86;85.97;101721.94;5114045;28;20418;-60
2022/02/22 05:52:39;;;;;;;36.17;9.65;;;8.60;99.90;;;8.92;86.32;101719.41;5114238;28;20120;-59
2022/02/22 05:55:09;;;;;;;37.60;9.43;;;8.60;99.90;;;8.97;86.04;101715.97;5114201;28;20403;-59
2022/02/22 05:57:38;;;;;;;39.55;9.88;;;8.60;99.90;;;8.99;85.90;101705.44;5113943;28;20071;-59
2022/02/22 06:00:08;;;;;;;41.88;11.05;;;8.70;99.90;;;8.98;85.90;101704.53;5114289;28;20063;-59
2022/02/22 06:02:37;;;;;;;41.22;10.40;;;8.70;99.90;;;9.03;85.56;101705.53;5114064;28;20351;-59
2022/02/22 06:05:06;;;;;;;40.42;10.13;;;8.70;99.90;;;8.92;85.48;101700.94;5113866;28;20051;-59
2022/02/22 06:07:36;;;;;;;31.05;10.15;;;8.70;99.90;;;8.93;85.69;101702.69;5114172;28;20043;-59
2022/02/22 06:10:06;;;;;;;38.58;8.90;;;8.60;99.90;;;8.91;85.96;101710.59;5113710;28;20052;-59
2022/02/22 06:12:35;;;;;;;37.63;9.85;;;8.60;99.90;;;8.89;85.90;101706.16;5113731;28;20055;-60
2022/02/22 06:15:05;;;;;;;36.85;8.63;;;8.60;99.90;;;8.85;85.40;101705.22;5113732;28;20055;-59
2022/02/22 06:17:42;;;;;;;32.75;8.50;;;8.50;99.90;;;8.83;85.55;101706.06;5113827;28;20053;-59
2022/02/22 06:20:14;;;;;;;34.15;9.55;;;8.50;99.90;;;8.89;85.19;101714.06;5113701;28;20095;-59
2022/02/22 06:22:45;;;;;;;38.55;9.50;;;8.60;99.90;;;8.89;85.38;101695.59;5113500;28;20101;-59
2022/02/22 06:25:14;;;;;;;29.17;8.45;;;8.60;99.90;;;8.88;85.60;101685.94;5113556;28;20079;-59
2022/02/22 06:27:48;;;;;;;30.63;7.93;;;8.60;99.90;;;8.89;85.53;101675.38;5113590;28;20441;-59
2022/02/22 06:30:17;;;;;;;25.10;6.60;;;8.60;99.90;;;8.85;85.30;101675.31;5113495;28;20458;-60
2022/02/22 06:32:46;;;;;;;24.58;7.95;;;8.60;99.90;;;8.86;85.07;101683.28;5113470;28;20104;-59
2022/02/22 06:35:15;;;;;;;32.03;8.38;;;8.60;99.90;;;8.79;85.32;101689.28;5113476;28;20047;-59
2022/02/22 06:37:45;;;;;;;31.95;8.18;;;8.60;99.90;;;8.81;85.99;101690.22;5113686;28;20481;-59
2022/02/22 06:40:13;;;;;;;35.58;9.15;;;8.50;99.90;;;8.81;85.96;101687.56;5113541;28;20043;-59
2022/02/22 06:42:42;;;;;;;37.65;9.68;;;8.60;99.90;;;8.80;86.49;101684.91;5113366;28;20112;-61
2022/02/22 06:45:11;;;;;;;31.30;8.65;;;8.50;99.90;;;8.74;86.75;101669.88;5113062;28;20461;-59
2022/02/22 06:47:40;;;;;;;36.78;9.15;;;8.60;99.90;;;8.74;87.24;101680.44;5113271;28;20051;-59
2022/02/22 06:50:12;;;;;;;35.35;8.00;;;8.50;99.90;;;8.73;87.52;101677.78;5113114;28;20079;-60
2022/02/22 06:52:42;;;;;;;35.30;9.30;;;8.50;99.90;;;8.06;87.87;101573.81;5113071;28;20093;-59
2022/02/22 06:55:14;;;;;;;30.77;9.80;;;8.40;99.90;;;8.65;88.70;101684.69;5113279;28;20047;-59
2022/02/22 06:57:44;;;;;;;35.72;9.05;;;8.40;99.90;;;8.63;88.46;101674.06;5113543;28;20051;-59
2022/02/22 07:00:15;;;;;;;28.52;8.25;;;8.40;99.90;;;8.67;88.92;101669.75;5112983;28;20055;-59
2022/02/22 07:02:44;;;;;;;34.42;9.27;;;8.40;99.90;;;8.71;88.99;101669.81;5113483;28;20047;-60
2022/02/22 07:05:12;;;;;;;42.42;9.43;;;8.40;99.90;;;8.65;89.16;101672.34;5112928;28;20428;-59
2022/02/22 07:07:47;;;;;;;37.30;8.77;;;8.40;99.90;;;8.62;89.03;101669.69;5112921;28;20524;-60
2022/02/22 07:10:15;;;;;;;40.42;9.70;;;8.40;99.90;;;8.67;89.23;101667.13;5112704;28;20118;-59
2022/02/22 07:12:44;;;;;;;41.95;8.73;;;8.40;99.90;;;8.56;89.72;101658.13;5112510;28;20468;-59
2022/02/22 07:15:14;;;;;;;40.55;10.30;;;8.30;99.90;;;8.65;89.56;101647.75;5112863;28;20458;-59
2022/02/22 07:17:47;;;;;;;41.80;9.57;;;8.40;99.90;;;8.62;89.41;101638.03;5113017;28;20444;-59
2022/02/22 07:20:17;;;;;;;43.28;9.55;;;8.40;99.90;;;8.58;89.55;101637.94;5094418;28;20484;-60
2022/02/22 07:22:46;;;;;;;42.10;10.48;;;8.40;99.90;;;8.46;89.59;101635.16;5112694;28;20496;-61
2022/02/22 07:25:17;;;;;;;43.00;9.90;;;8.30;99.90;;;8.47;90.29;101634.25;5112465;28;20048;-60
2022/02/22 07:27:46;;;;;;;51.15;10.48;;;8.20;99.90;;;8.47;90.63;101631.63;5112574;28;20126;-60
2022/02/22 07:30:18;;;;;;;35.90;9.43;;;8.30;99.90;;;8.52;90.63;101627.31;5112438;28;20100;-60
2022/02/22 07:32:48;;;;;;;45.67;10.82;;;8.30;99.90;;;8.59;90.44;101619.53;5112518;28;20070;-60
2022/02/22 07:35:16;;;;;;;53.85;11.88;;;8.30;99.90;;;8.47;90.58;101619.34;5112537;28;20052;-61
2022/02/22 07:37:46;;;;;;;50.28;10.02;;;8.30;99.90;;;8.55;91.22;101632.66;5112293;28;20039;-60
2022/02/22 07:40:18;;;;;;;50.10;10.40;;;8.30;99.90;;;8.48;91.39;101636.91;5112801;28;20043;-60
2022/02/22 07:42:51;;;;;;;50.10;10.45;;;8.30;99.90;;;8.46;91.86;101619.31;5112713;28;20070;-60
2022/02/22 07:45:21;;;;;;;50.20;10.52;;;8.30;99.90;;;8.55;92.02;101617.72;5112301;28;20043;-60
2022/02/22 07:47:50;;;;;;;46.05;10.52;;;8.30;99.90;;;8.59;91.69;101616.00;5093740;28;20519;-60
2022/02/22 07:50:18;;;;;;;64.07;11.43;;;8.40;99.90;;;8.60;91.51;101623.03;5111838;28;20063;-60
2022/02/22 07:52:47;;;;;;;52.75;11.65;;;8.40;99.90;;;8.66;92.09;101613.50;5112263;28;20174;-60
2022/02/22 07:55:15;;;;;;;45.63;11.52;;;8.40;99.90;;;8.75;92.29;101613.63;5111823;28;20071;-59
2022/02/22 07:57:47;;;;;;;43.17;11.27;;;8.50;99.90;;;8.74;92.23;101622.41;5112200;28;20036;-59
2022/02/22 08:00:16;;;;;;;47.65;9.90;;;8.50;99.90;;;8.73;92.27;101610.06;5112147;28;20040;-59
2022/02/22 08:02:54;;;;;;;42.00;11.52;;;8.50;99.90;;;8.83;92.39;101621.63;5111939;28;20071;-59
2022/02/22 08:05:23;;;;;;;59.72;11.40;;;8.60;99.90;;;8.70;92.23;101588.94;5112191;28;20117;-58
2022/02/22 08:07:51;;;;;;;48.92;11.80;;;8.60;99.90;;;8.84;91.81;101604.97;5111979;28;20113;-59
2022/02/22 08:10:25;;;;;;;50.80;12.25;;;8.60;99.90;;;8.81;91.71;101603.16;5111779;28;20039;-59
2022/02/22 08:12:54;;;;;;;51.92;11.05;;;8.60;99.90;;;8.70;92.17;101604.75;5111709;28;20056;-60
2022/02/22 08:15:22;;;;;;;53.10;12.00;;;8.50;99.90;;;8.72;91.98;101578.41;5111726;28;20047;-59
2022/02/22 08:17:54;;;;;;;43.50;11.38;;;8.50;99.90;;;8.72;91.78;101586.31;5112065;28;20054;-60
2022/02/22 08:20:23;;;;;;;48.88;10.73;;;8.50;99.90;;;8.77;92.33;101571.44;5112035;28;20119;-61
2022/02/22 08:22:53;;;;;;;;;;;8.60;99.90;;;8.73;92.13;101585.47;5112174;28;20040;-61
2022/02/22 08:25:22;;;;;;;46.45;10.90;;;8.50;99.90;;;8.72;92.08;101576.66;5111709;28;20284;-60
2022/02/22 08:27:51;;;;;;;46.38;9.95;;;8.50;99.90;;;8.73;92.20;101567.88;5093529;28;20039;-61
2022/02/22 08:30:20;;;;;;;38.17;9.90;;;8.50;99.90;;;8.72;91.98;101555.56;5111881;28;20135;-60
2022/02/22 08:32:49;;;;;;;48.53;10.27;;;8.50;99.90;;;8.62;92.28;101579.13;5111465;28;20040;-59
2022/02/22 08:35:18;;;;;;;43.60;10.27;;;8.50;99.90;;;8.61;92.32;101561.56;5112076;28;20071;-60
2022/02/22 08:37:50;;;;;;;47.15;11.05;;;8.40;99.90;;;8.66;92.33;101550.19;5111570;28;20405;-61
2022/02/22 08:40:19;;;;;;;50.50;11.10;;;8.50;99.90;;;8.84;92.20;101539.91;5111525;28;20141;-60
2022/02/22 08:42:47;;;;;;;41.88;11.75;;;8.60;99.90;;;8.98;91.64;101548.88;5111438;28;20122;-62
2022/02/22 08:45:24;;;;;;;46.00;10.18;;;8.70;99.90;;;9.18;90.84;101538.56;5093323;28;20051;-60
2022/02/22 08:47:54;;;;;;;48.08;10.90;;;8.90;99.90;;;9.04;90.28;101540.13;5111675;28;20043;-60
2022/02/22 08:50:26;;;;;;;46.80;10.95;;;8.90;99.90;;;9.04;89.50;101534.88;5111740;28;20059;-60
2022/02/22 08:52:54;;;;;;;47.42;11.45;;;8.90;99.90;;;8.96;88.82;101524.22;5111384;28;20527;-60
2022/02/22 08:55:24;;;;;;;40.80;11.60;;;8.80;99.90;;;9.02;89.28;101523.41;5093104;28;20054;-61
2022/02/22 08:57:53;;;;;;;39.05;10.93;;;8.80;99.90;;;9.03;88.75;101533.09;5111288;28;20142;-64
2022/02/22 09:00:23;;;;;;;40.45;11.82;;;8.80;99.90;;;9.01;88.43;101524.28;5111280;28;20457;-60
2022/02/22 09:02:57;;;;;;;43.05;11.95;;;8.80;99.90;;;9.02;87.95;101523.41;5093082;28;20121;-60
2022/02/22 09:05:27;;;;;;;34.85;10.55;;;8.80;99.90;;;9.01;87.96;101496.16;5111200;28;20055;-60
2022/02/22 09:07:56;;;;;;;;;;;8.90;99.90;;;8.93;87.38;101500.44;5094406;28;20044;-60
2022/02/22 09:10:25;;;;;;;37.63;10.73;;;8.80;99.90;;;8.87;87.58;101500.38;5115118;28;19926;-60
2022/02/22 09:12:54;;;;;;;46.00;11.63;;;8.70;99.90;;;8.90;87.32;101491.63;5114792;28;20073;-61
2022/02/22 09:15:25;;;;;;;40.47;10.52;;;8.70;99.90;;;8.85;87.33;101473.09;5114915;28;20055;-61
2022/02/22 09:17:54;;;;;;;43.38;12.20;;;8.70;99.90;;;8.91;87.28;101482.81;5114726;28;20138;-61
2022/02/22 09:20:23;;;;;;;46.47;12.80;;;8.80;99.90;;;8.95;87.51;101506.63;5096642;28;20094;-61
2022/02/22 09:22:54;;;;;;;41.00;12.00;;;8.70;99.90;;;9.06;88.07;101488.28;5114767;28;20051;-61
2022/02/22 09:25:23;;;;;;;43.72;10.52;;;8.80;99.90;;;8.87;87.60;101470.47;5114677;28;20404;-61
2022/02/22 09:27:52;;;;;;;43.50;12.05;;;8.80;99.90;;;9.07;87.59;101503.25;5114377;28;20139;-61
2022/02/22 09:30:22;;;;;;;36.30;10.80;;;8.90;99.90;;;9.02;87.14;101516.38;5114566;28;20477;-61
2022/02/22 09:32:51;;;;;;;48.85;11.40;;;8.90;99.90;;;9.06;87.14;101498.81;5114416;28;20572;-61
2022/02/22 09:35:24;;;;;;;43.97;11.07;;;8.90;99.90;;;9.11;87.07;101512.97;5114777;28;20055;-61
2022/02/22 09:37:56;;;;;;;44.45;11.05;;;8.90;99.90;;;9.17;86.92;101502.50;5114684;28;20507;-61
2022/02/22 09:40:25;;;;;;;57.22;13.07;;;8.90;99.90;;;9.12;87.61;101492.75;5114611;28;20082;-61
2022/02/22 09:42:54;;;;;;;52.53;12.18;;;8.90;99.90;;;9.16;87.65;101474.31;5095969;28;20047;-61
2022/02/22 09:45:25;;;;;;;45.13;10.57;;;9.00;99.90;;;9.15;88.01;101493.69;5114351;28;20044;-61
2022/02/22 09:48:01;;;;;;;47.70;12.18;;;8.90;99.90;;;9.12;88.11;101504.19;5114736;28;20436;-61
2022/02/22 09:50:30;;;;;;;47.80;11.73;;;8.90;99.90;;;9.15;88.42;101492.78;5114990;28;20079;-61
2022/02/22 09:53:00;;;;;;;51.10;11.30;;;8.90;99.90;;;9.19;88.52;101492.84;5114240;28;20047;-61
2022/02/22 09:55:29;;;;;;;57.70;12.18;;;9.00;99.90;;;9.13;89.79;101490.13;5096219;28;20047;-61
2022/02/22 09:57:57;;;;;;;53.22;11.77;;;8.90;99.90;;;9.22;90.02;101478.78;5096246;28;20504;-61
2022/02/22 10:00:31;;;;;;;52.97;11.57;;;9.00;99.90;;;9.18;90.43;101464.66;5114357;28;20046;-61
2022/02/22 10:03:04;;;;;;;56.53;14.02;;;9.00;99.90;;;9.12;91.80;101479.56;5114274;28;20426;-61
2022/02/22 10:05:33;;;;;;;52.83;12.05;;;8.90;99.90;;;9.16;92.63;101473.41;5114329;28;20058;-62
2022/02/22 10:08:05;;;;;;;49.90;12.07;;;8.90;99.90;;;9.19;93.75;101473.47;5114126;28;20487;-60
2022/02/22 10:10:38;;;;;;;60.10;12.68;;;9.00;99.90;;;9.14;94.76;101460.22;5114156;28;20127;-61
2022/02/22 10:13:08;;;;;;;56.67;13.05;;;8.90;99.90;;;9.15;95.71;101451.44;5114184;28;20035;-61
2022/02/22 10:15:38;;;;;;;;;;;8.90;99.90;;;9.11;96.40;101433.81;5114375;28;20138;-61
2022/02/22 10:18:07;;;;;;;43.35;11.63;;;8.90;99.90;;;9.07;96.71;101421.44;5113721;28;20014;-60
2022/02/22 10:20:36;;;;;;;42.92;11.75;;;8.90;99.90;;;9.07;98.08;101416.19;5095480;28;20135;-61
2022/02/22 10:23:07;;;;;;;48.30;11.32;;;8.90;99.90;;;9.24;98.49;101425.16;5113786;28;20085;-61
2022/02/22 10:25:36;;;;;;;42.08;11.43;;;9.00;99.90;;;9.18;99.31;101419.78;5114288;28;20043;-61
2022/02/22 10:28:07;;;;;;;32.22;9.75;;;9.00;99.90;;;9.18;99.59;101417.16;5113856;28;20393;-61